sensor_id;sensor_type;location;lat;lon;timestamp;pressure;altitude;pressure_sealevel;temperature;humidity
49545;BME280;74870;42.636;23.302;2024-01-07T00:02:14;91682.03;;;7.05;70.06
49545;BME280;74870;42.636;23.302;2024-01-07T00:04:42;91674.50;;;6.87;70.66
49545;BME280;74870;42.636;23.302;2024-01-07T00:07:07;91638.19;;;6.59;72.26
49545;BME280;74870;42.636;23.302;2024-01-07T00:09:33;91659.44;;;6.84;73.58
49545;BME280;74870;42.636;23.302;2024-01-07T00:11:59;91654.78;;;6.72;73.13
49545;BME280;74870;42.636;23.302;2024-01-07T00:14:25;91661.34;;;6.61;74.03
49545;BME280;74870;42.636;23.302;2024-01-07T00:16:50;91652.34;;;6.75;73.29
49545;BME280;74870;42.636;23.302;2024-01-07T00:19:15;91649.75;;;6.75;72.47
49545;BME280;74870;42.636;23.302;2024-01-07T00:21:41;91645.16;;;6.81;72.67
49545;BME280;74870;42.636;23.302;2024-01-07T00:24:06;91599.66;;;6.48;72.37
49545;BME280;74870;42.636;23.302;2024-01-07T00:26:32;91638.13;;;6.90;71.65
49545;BME280;74870;42.636;23.302;2024-01-07T00:28:57;91638.13;;;6.90;71.75
49545;BME280;74870;42.636;23.302;2024-01-07T00:31:22;91635.97;;;6.92;72.24
49545;BME280;74870;42.636;23.302;2024-01-07T00:33:48;91618.50;;;6.93;72.57
49545;BME280;74870;42.636;23.302;2024-01-07T00:36:13;91613.59;;;7.00;72.83
49545;BME280;74870;42.636;23.302;2024-01-07T00:38:39;91606.56;;;7.09;71.88
49545;BME280;74870;42.636;23.302;2024-01-07T00:41:04;91603.75;;;7.05;71.68
49545;BME280;74870;42.636;23.302;2024-01-07T00:43:30;91616.53;;;7.07;70.90
49545;BME280;74870;42.636;23.302;2024-01-07T00:45:55;91591.59;;;6.75;70.87
49545;BME280;74870;42.636;23.302;2024-01-07T00:48:20;91602.34;;;6.82;72.05
49545;BME280;74870;42.636;23.302;2024-01-07T00:50:46;91548.88;;;6.45;71.69
49545;BME280;74870;42.636;23.302;2024-01-07T00:53:11;91586.53;;;6.70;71.68
49545;BME280;74870;42.636;23.302;2024-01-07T00:55:36;91578.06;;;6.73;73.13
49545;BME280;74870;42.636;23.302;2024-01-07T00:58:02;91583.63;;;6.80;72.13
49545;BME280;74870;42.636;23.302;2024-01-07T01:00:28;91566.75;;;6.86;71.99
49545;BME280;74870;42.636;23.302;2024-01-07T01:02:54;91571.94;;;6.69;73.38
49545;BME280;74870;42.636;23.302;2024-01-07T01:05:19;91556.44;;;6.64;73.18
49545;BME280;74870;42.636;23.302;2024-01-07T01:07:45;91564.94;;;6.87;73.03
49545;BME280;74870;42.636;23.302;2024-01-07T01:10:10;91570.72;;;6.75;74.57
49545;BME280;74870;42.636;23.302;2024-01-07T01:12:36;91555.94;;;6.53;76.54
49545;BME280;74870;42.636;23.302;2024-01-07T01:15:01;91561.09;;;6.84;73.86
49545;BME280;74870;42.636;23.302;2024-01-07T01:17:26;91551.88;;;7.04;73.54
49545;BME280;74870;42.636;23.302;2024-01-07T01:19:52;91550.38;;;7.03;72.49
49545;BME280;74870;42.636;23.302;2024-01-07T01:22:17;91542.84;;;7.10;72.93
49545;BME280;74870;42.636;23.302;2024-01-07T01:24:42;91535.94;;;7.14;73.17
49545;BME280;74870;42.636;23.302;2024-01-07T01:27:11;91515.22;;;7.00;74.96
49545;BME280;74870;42.636;23.302;2024-01-07T01:29:36;91505.53;;;6.92;77.21
49545;BME280;74870;42.636;23.302;2024-01-07T01:32:02;91486.03;;;6.90;76.97
49545;BME280;74870;42.636;23.302;2024-01-07T01:34:27;91491.72;;;7.00;76.69
49545;BME280;74870;42.636;23.302;2024-01-07T01:36:53;91489.72;;;7.14;76.51
49545;BME280;74870;42.636;23.302;2024-01-07T01:39:18;91489.88;;;7.26;76.13
49545;BME280;74870;42.636;23.302;2024-01-07T01:41:43;91479.59;;;7.13;72.33
49545;BME280;74870;42.636;23.302;2024-01-07T01:44:09;91484.78;;;7.21;71.68
49545;BME280;74870;42.636;23.302;2024-01-07T01:46:34;91479.44;;;7.09;71.92
49545;BME280;74870;42.636;23.302;2024-01-07T01:49:00;91458.75;;;6.78;72.60
49545;BME280;74870;42.636;23.302;2024-01-07T01:51:26;91452.44;;;6.88;74.42
49545;BME280;74870;42.636;23.302;2024-01-07T01:53:51;91436.03;;;6.96;74.63
49545;BME280;74870;42.636;23.302;2024-01-07T01:56:20;91446.75;;;6.69;77.19
49545;BME280;74870;42.636;23.302;2024-01-07T01:58:48;91432.34;;;6.71;78.68
49545;BME280;74870;42.636;23.302;2024-01-07T02:01:13;91438.94;;;6.86;79.51
49545;BME280;74870;42.636;23.302;2024-01-07T02:03:39;91446.47;;;6.96;81.57
49545;BME280;74870;42.636;23.302;2024-01-07T02:06:05;91445.50;;;7.09;80.97
49545;BME280;74870;42.636;23.302;2024-01-07T02:08:31;91438.91;;;7.29;80.08
49545;BME280;74870;42.636;23.302;2024-01-07T02:10:56;91446.88;;;7.32;79.82
49545;BME280;74870;42.636;23.302;2024-01-07T02:13:22;91441.00;;;7.44;79.21
49545;BME280;74870;42.636;23.302;2024-01-07T02:15:47;91427.28;;;7.55;78.81
49545;BME280;74870;42.636;23.302;2024-01-07T02:18:13;91420.97;;;7.65;78.20
49545;BME280;74870;42.636;23.302;2024-01-07T02:20:38;91396.25;;;7.62;77.49
49545;BME280;74870;42.636;23.302;2024-01-07T02:23:04;91401.31;;;7.97;76.86
49545;BME280;74870;42.636;23.302;2024-01-07T02:25:35;91373.31;;;8.06;76.27
49545;BME280;74870;42.636;23.302;2024-01-07T02:28:00;91357.75;;;8.09;76.33
49545;BME280;74870;42.636;23.302;2024-01-07T02:30:25;91360.34;;;8.09;76.97
49545;BME280;74870;42.636;23.302;2024-01-07T02:32:52;91346.50;;;8.09;76.98
49545;BME280;74870;42.636;23.302;2024-01-07T02:35:17;91322.31;;;8.00;77.58
49545;BME280;74870;42.636;23.302;2024-01-07T02:37:43;91324.47;;;7.98;77.60
49545;BME280;74870;42.636;23.302;2024-01-07T02:40:09;91340.41;;;8.05;77.41
49545;BME280;74870;42.636;23.302;2024-01-07T02:42:34;91328.09;;;8.05;77.64
49545;BME280;74870;42.636;23.302;2024-01-07T02:45:00;91332.22;;;8.06;77.70
49545;BME280;74870;42.636;23.302;2024-01-07T02:47:25;91346.06;;;8.07;77.71
49545;BME280;74870;42.636;23.302;2024-01-07T02:49:51;91359.50;;;8.26;77.14
49545;BME280;74870;42.636;23.302;2024-01-07T02:52:16;91356.56;;;8.27;77.33
49545;BME280;74870;42.636;23.302;2024-01-07T02:54:42;91348.88;;;8.22;77.25
49545;BME280;74870;42.636;23.302;2024-01-07T02:57:07;91349.19;;;8.29;76.94
49545;BME280;74870;42.636;23.302;2024-01-07T02:59:33;91357.41;;;8.40;76.52
49545;BME280;74870;42.636;23.302;2024-01-07T03:01:58;91357.66;;;8.47;76.40
49545;BME280;74870;42.636;23.302;2024-01-07T03:04:23;91364.44;;;8.48;76.28
49545;BME280;74870;42.636;23.302;2024-01-07T03:06:49;91366.84;;;8.53;76.41
49545;BME280;74870;42.636;23.302;2024-01-07T03:09:14;91370.22;;;8.54;76.06
49545;BME280;74870;42.636;23.302;2024-01-07T03:11:40;91385.59;;;8.55;76.23
49545;BME280;74870;42.636;23.302;2024-01-07T03:14:09;91400.97;;;8.77;75.60
49545;BME280;74870;42.636;23.302;2024-01-07T03:16:35;91400.78;;;8.82;75.75
49545;BME280;74870;42.636;23.302;2024-01-07T03:19:00;91394.56;;;8.87;76.01
49545;BME280;74870;42.636;23.302;2024-01-07T03:21:27;91404.72;;;8.88;75.35
49545;BME280;74870;42.636;23.302;2024-01-07T03:23:52;91222.72;;;7.72;74.60
49545;BME280;74870;42.636;23.302;2024-01-07T03:26:20;91401.13;;;8.93;75.19
49545;BME280;74870;42.636;23.302;2024-01-07T03:28:45;91410.84;;;8.92;75.02
49545;BME280;74870;42.636;23.302;2024-01-07T03:31:12;91398.59;;;8.84;75.46
49545;BME280;74870;42.636;23.302;2024-01-07T03:33:39;91407.59;;;8.95;75.63
49545;BME280;74870;42.636;23.302;2024-01-07T03:36:12;91377.28;;;8.74;75.98
49545;BME280;74870;42.636;23.302;2024-01-07T03:38:38;91374.25;;;8.72;75.76
49545;BME280;74870;42.636;23.302;2024-01-07T03:41:05;91394.97;;;8.77;76.27
49545;BME280;74870;42.636;23.302;2024-01-07T03:43:30;91388.72;;;8.69;76.14
49545;BME280;74870;42.636;23.302;2024-01-07T03:45:56;91365.06;;;8.66;75.98
49545;BME280;74870;42.636;23.302;2024-01-07T03:48:21;91378.63;;;8.80;75.80
49545;BME280;74870;42.636;23.302;2024-01-07T03:50:47;91376.34;;;8.78;75.97
49545;BME280;74870;42.636;23.302;2024-01-07T03:53:12;91364.84;;;8.71;76.08
49545;BME280;74870;42.636;23.302;2024-01-07T03:55:38;91384.09;;;8.87;75.81
49545;BME280;74870;42.636;23.302;2024-01-07T03:58:04;91353.53;;;8.79;75.38
49545;BME280;74870;42.636;23.302;2024-01-07T04:00:30;91364.25;;;8.86;75.67
49545;BME280;74870;42.636;23.302;2024-01-07T04:02:55;91333.78;;;8.69;75.30
49545;BME280;74870;42.636;23.302;2024-01-07T04:05:20;91361.97;;;8.84;75.13
49545;BME280;74870;42.636;23.302;2024-01-07T04:07:46;91356.84;;;8.88;74.94
49545;BME280;74870;42.636;23.302;2024-01-07T04:10:11;91358.22;;;8.73;75.32
49545;BME280;74870;42.636;23.302;2024-01-07T04:12:37;91362.97;;;8.92;75.03
49545;BME280;74870;42.636;23.302;2024-01-07T04:15:03;91360.03;;;8.93;75.30
49545;BME280;74870;42.636;23.302;2024-01-07T04:17:28;91352.66;;;8.75;76.06
49545;BME280;74870;42.636;23.302;2024-01-07T04:19:54;91359.59;;;8.71;76.05
49545;BME280;74870;42.636;23.302;2024-01-07T04:22:20;91357.88;;;8.42;77.05
49545;BME280;74870;42.636;23.302;2024-01-07T04:24:45;91368.06;;;8.35;78.24
49545;BME280;74870;42.636;23.302;2024-01-07T04:27:11;91363.53;;;8.15;79.35
49545;BME280;74870;42.636;23.302;2024-01-07T04:29:36;91359.31;;;8.31;79.28
49545;BME280;74870;42.636;23.302;2024-01-07T04:32:01;91292.34;;;8.18;78.46
49545;BME280;74870;42.636;23.302;2024-01-07T04:34:27;91334.69;;;8.53;77.10
49545;BME280;74870;42.636;23.302;2024-01-07T04:36:53;91338.00;;;8.41;78.49
49545;BME280;74870;42.636;23.302;2024-01-07T04:39:18;91346.03;;;8.57;78.10
49545;BME280;74870;42.636;23.302;2024-01-07T04:41:44;91326.22;;;8.56;77.46
49545;BME280;74870;42.636;23.302;2024-01-07T04:44:09;91336.72;;;8.68;77.36
49545;BME280;74870;42.636;23.302;2024-01-07T04:46:37;91334.09;;;8.68;77.69
49545;BME280;74870;42.636;23.302;2024-01-07T04:49:03;91321.97;;;8.63;77.68
49545;BME280;74870;42.636;23.302;2024-01-07T04:51:28;91313.25;;;8.59;77.69
49545;BME280;74870;42.636;23.302;2024-01-07T04:53:54;91327.03;;;8.68;77.52
49545;BME280;74870;42.636;23.302;2024-01-07T04:56:20;91322.97;;;8.71;77.04
49545;BME280;74870;42.636;23.302;2024-01-07T04:58:45;91346.47;;;8.79;76.68
49545;BME280;74870;42.636;23.302;2024-01-07T05:01:11;91347.00;;;8.52;78.01
49545;BME280;74870;42.636;23.302;2024-01-07T05:03:36;91350.13;;;8.66;77.52
49545;BME280;74870;42.636;23.302;2024-01-07T05:06:03;91338.38;;;8.72;77.05
49545;BME280;74870;42.636;23.302;2024-01-07T05:08:29;91305.50;;;8.63;76.55
49545;BME280;74870;42.636;23.302;2024-01-07T05:10:55;91320.47;;;8.62;76.96
49545;BME280;74870;42.636;23.302;2024-01-07T05:13:20;91340.00;;;8.77;76.37
49545;BME280;74870;42.636;23.302;2024-01-07T05:15:46;91331.53;;;8.80;76.08
49545;BME280;74870;42.636;23.302;2024-01-07T05:18:21;91328.81;;;8.76;76.23
49545;BME280;74870;42.636;23.302;2024-01-07T05:20:47;91322.03;;;8.75;76.36
49545;BME280;74870;42.636;23.302;2024-01-07T05:23:13;91319.53;;;8.79;76.67
49545;BME280;74870;42.636;23.302;2024-01-07T05:25:38;91303.47;;;8.68;76.63
49545;BME280;74870;42.636;23.302;2024-01-07T05:28:03;91302.06;;;8.71;76.30
49545;BME280;74870;42.636;23.302;2024-01-07T05:30:29;91323.28;;;8.36;78.75
49545;BME280;74870;42.636;23.302;2024-01-07T05:32:54;91326.00;;;8.19;80.45
49545;BME280;74870;42.636;23.302;2024-01-07T05:35:19;91342.28;;;8.45;79.19
49545;BME280;74870;42.636;23.302;2024-01-07T05:37:45;91331.31;;;8.31;77.84
49545;BME280;74870;42.636;23.302;2024-01-07T05:40:10;91315.34;;;8.24;76.69
49545;BME280;74870;42.636;23.302;2024-01-07T05:42:36;91322.81;;;8.34;76.63
49545;BME280;74870;42.636;23.302;2024-01-07T05:45:01;91307.59;;;8.36;76.22
49545;BME280;74870;42.636;23.302;2024-01-07T05:47:28;91317.53;;;8.43;76.30
49545;BME280;74870;42.636;23.302;2024-01-07T05:49:53;91318.09;;;8.48;76.04
49545;BME280;74870;42.636;23.302;2024-01-07T05:52:19;91329.34;;;8.28;76.55
49545;BME280;74870;42.636;23.302;2024-01-07T05:54:44;91333.16;;;8.31;76.70
49545;BME280;74870;42.636;23.302;2024-01-07T05:57:11;91332.34;;;7.89;78.95
49545;BME280;74870;42.636;23.302;2024-01-07T05:59:37;91337.16;;;7.79;80.27
49545;BME280;74870;42.636;23.302;2024-01-07T06:02:03;91334.53;;;7.49;81.82
49545;BME280;74870;42.636;23.302;2024-01-07T06:04:28;91335.81;;;7.73;80.61
49545;BME280;74870;42.636;23.302;2024-01-07T06:06:54;91324.38;;;7.56;82.63
49545;BME280;74870;42.636;23.302;2024-01-07T06:09:19;91310.03;;;7.71;82.30
49545;BME280;74870;42.636;23.302;2024-01-07T06:11:45;91298.75;;;7.79;81.87
49545;BME280;74870;42.636;23.302;2024-01-07T06:14:10;91319.13;;;7.65;84.21
49545;BME280;74870;42.636;23.302;2024-01-07T06:16:35;91315.38;;;7.75;83.46
49545;BME280;74870;42.636;23.302;2024-01-07T06:19:01;91322.22;;;7.88;82.24
49545;BME280;74870;42.636;23.302;2024-01-07T06:21:26;91316.72;;;7.81;81.88
49545;BME280;74870;42.636;23.302;2024-01-07T06:23:52;91309.06;;;7.76;82.12
49545;BME280;74870;42.636;23.302;2024-01-07T06:26:17;91330.09;;;7.50;83.67
49545;BME280;74870;42.636;23.302;2024-01-07T06:28:43;91264.72;;;7.09;84.37
49545;BME280;74870;42.636;23.302;2024-01-07T06:31:08;91305.00;;;7.57;82.96
49545;BME280;74870;42.636;23.302;2024-01-07T06:33:34;91327.69;;;7.65;82.74
49545;BME280;74870;42.636;23.302;2024-01-07T06:36:00;91315.59;;;7.61;82.32
49545;BME280;74870;42.636;23.302;2024-01-07T06:38:25;91340.28;;;7.72;82.38
49545;BME280;74870;42.636;23.302;2024-01-07T06:40:51;91340.88;;;7.78;82.75
49545;BME280;74870;42.636;23.302;2024-01-07T06:43:16;91348.03;;;7.89;81.83
49545;BME280;74870;42.636;23.302;2024-01-07T06:45:42;91350.03;;;7.54;83.31
49545;BME280;74870;42.636;23.302;2024-01-07T06:48:08;91348.66;;;7.57;84.01
49545;BME280;74870;42.636;23.302;2024-01-07T06:50:34;91350.13;;;7.67;83.04
49545;BME280;74870;42.636;23.302;2024-01-07T06:53:00;91357.09;;;7.92;82.71
49545;BME280;74870;42.636;23.302;2024-01-07T06:55:25;91344.09;;;8.04;81.63
49545;BME280;74870;42.636;23.302;2024-01-07T06:57:50;91339.25;;;8.14;81.11
49545;BME280;74870;42.636;23.302;2024-01-07T07:00:16;91357.91;;;8.33;80.23
49545;BME280;74870;42.636;23.302;2024-01-07T07:02:43;91302.91;;;8.01;80.00
49545;BME280;74870;42.636;23.302;2024-01-07T07:05:08;91352.16;;;8.19;80.45
49545;BME280;74870;42.636;23.302;2024-01-07T07:07:34;91355.09;;;8.18;80.88
49545;BME280;74870;42.636;23.302;2024-01-07T07:09:59;91345.63;;;8.05;81.98
49545;BME280;74870;42.636;23.302;2024-01-07T07:12:25;91352.41;;;8.06;81.66
49545;BME280;74870;42.636;23.302;2024-01-07T07:14:50;91348.69;;;8.07;82.39
49545;BME280;74870;42.636;23.302;2024-01-07T07:17:15;91344.59;;;7.97;82.56
49545;BME280;74870;42.636;23.302;2024-01-07T07:19:41;91342.06;;;8.09;81.62
49545;BME280;74870;42.636;23.302;2024-01-07T07:22:07;91330.00;;;7.96;82.10
49545;BME280;74870;42.636;23.302;2024-01-07T07:24:32;91328.16;;;7.97;81.18
49545;BME280;74870;42.636;23.302;2024-01-07T07:26:58;91343.34;;;8.24;80.46
49545;BME280;74870;42.636;23.302;2024-01-07T07:29:23;91334.09;;;8.06;81.24
49545;BME280;74870;42.636;23.302;2024-01-07T07:31:49;91333.44;;;8.09;81.42
49545;BME280;74870;42.636;23.302;2024-01-07T07:34:14;91326.41;;;7.80;80.81
49545;BME280;74870;42.636;23.302;2024-01-07T07:36:40;91339.72;;;8.37;79.04
49545;BME280;74870;42.636;23.302;2024-01-07T07:39:06;91305.28;;;8.35;77.09
49545;BME280;74870;42.636;23.302;2024-01-07T07:41:32;91334.03;;;8.14;77.82
49545;BME280;74870;42.636;23.302;2024-01-07T07:43:57;91328.38;;;8.33;78.53
49545;BME280;74870;42.636;23.302;2024-01-07T07:46:23;91336.16;;;8.41;78.03
49545;BME280;74870;42.636;23.302;2024-01-07T07:48:48;91305.28;;;8.35;76.83
49545;BME280;74870;42.636;23.302;2024-01-07T07:51:14;91292.78;;;8.20;76.45
49545;BME280;74870;42.636;23.302;2024-01-07T07:53:40;91319.69;;;8.20;76.99
49545;BME280;74870;42.636;23.302;2024-01-07T07:56:06;91323.41;;;8.40;76.22
49545;BME280;74870;42.636;23.302;2024-01-07T07:58:31;91339.28;;;8.56;75.21
49545;BME280;74870;42.636;23.302;2024-01-07T08:00:57;91333.59;;;8.74;74.91
49545;BME280;74870;42.636;23.302;2024-01-07T08:03:23;91336.56;;;8.85;74.77
49545;BME280;74870;42.636;23.302;2024-01-07T08:05:48;91326.38;;;9.04;73.79
49545;BME280;74870;42.636;23.302;2024-01-07T08:08:15;91329.63;;;9.01;73.22
49545;BME280;74870;42.636;23.302;2024-01-07T08:10:42;91333.38;;;9.12;73.29
49545;BME280;74870;42.636;23.302;2024-01-07T08:13:08;91346.78;;;8.78;74.20
49545;BME280;74870;42.636;23.302;2024-01-07T08:15:34;91330.16;;;8.94;72.79
49545;BME280;74870;42.636;23.302;2024-01-07T08:18:00;91327.97;;;8.64;71.65
49545;BME280;74870;42.636;23.302;2024-01-07T08:20:25;91326.09;;;8.85;72.91
49545;BME280;74870;42.636;23.302;2024-01-07T08:22:51;91318.19;;;9.05;72.60
49545;BME280;74870;42.636;23.302;2024-01-07T08:25:16;91329.88;;;9.08;72.74
49545;BME280;74870;42.636;23.302;2024-01-07T08:27:42;91335.56;;;8.77;74.24
49545;BME280;74870;42.636;23.302;2024-01-07T08:30:07;91321.88;;;8.92;72.43
49545;BME280;74870;42.636;23.302;2024-01-07T08:32:33;91319.84;;;9.10;71.68
49545;BME280;74870;42.636;23.302;2024-01-07T08:35:00;91341.59;;;9.22;72.54
49545;BME280;74870;42.636;23.302;2024-01-07T08:37:26;91278.03;;;8.89;71.29
49545;BME280;74870;42.636;23.302;2024-01-07T08:39:51;91339.34;;;9.00;72.31
49545;BME280;74870;42.636;23.302;2024-01-07T08:42:16;91308.38;;;9.02;71.64
49545;BME280;74870;42.636;23.302;2024-01-07T08:44:42;91319.34;;;9.28;71.53
49545;BME280;74870;42.636;23.302;2024-01-07T08:47:07;91318.63;;;9.07;72.04
49545;BME280;74870;42.636;23.302;2024-01-07T08:49:33;91282.00;;;9.44;71.07
49545;BME280;74870;42.636;23.302;2024-01-07T08:51:59;91327.84;;;9.98;69.44
49545;BME280;74870;42.636;23.302;2024-01-07T08:54:24;91321.63;;;9.90;69.90
49545;BME280;74870;42.636;23.302;2024-01-07T08:56:49;91306.00;;;9.94;69.71
49545;BME280;74870;42.636;23.302;2024-01-07T08:59:15;91303.75;;;9.80;69.81
49545;BME280;74870;42.636;23.302;2024-01-07T09:01:40;91311.06;;;9.75;70.79
49545;BME280;74870;42.636;23.302;2024-01-07T09:04:06;91309.53;;;9.74;71.89
49545;BME280;74870;42.636;23.302;2024-01-07T09:06:31;91310.63;;;9.73;71.63
49545;BME280;74870;42.636;23.302;2024-01-07T09:08:57;91314.22;;;9.56;72.59
49545;BME280;74870;42.636;23.302;2024-01-07T09:11:22;91316.50;;;9.58;72.24
49545;BME280;74870;42.636;23.302;2024-01-07T09:13:49;91333.97;;;9.78;72.82
49545;BME280;74870;42.636;23.302;2024-01-07T09:16:15;91322.09;;;9.80;72.41
49545;BME280;74870;42.636;23.302;2024-01-07T09:18:41;91309.31;;;9.79;72.12
49545;BME280;74870;42.636;23.302;2024-01-07T09:21:06;91329.16;;;9.92;72.79
49545;BME280;74870;42.636;23.302;2024-01-07T09:23:32;91331.03;;;9.91;71.98
49545;BME280;74870;42.636;23.302;2024-01-07T09:25:59;91331.69;;;10.25;71.30
49545;BME280;74870;42.636;23.302;2024-01-07T09:28:24;91326.97;;;10.06;70.73
49545;BME280;74870;42.636;23.302;2024-01-07T09:30:50;91320.78;;;10.10;70.88
49545;BME280;74870;42.636;23.302;2024-01-07T09:33:15;91335.97;;;9.93;72.16
49545;BME280;74870;42.636;23.302;2024-01-07T09:35:41;91332.00;;;9.99;71.93
49545;BME280;74870;42.636;23.302;2024-01-07T09:38:06;91318.78;;;10.32;70.88
49545;BME280;74870;42.636;23.302;2024-01-07T09:40:32;91317.13;;;10.39;71.00
49545;BME280;74870;42.636;23.302;2024-01-07T09:42:57;91307.91;;;10.73;68.94
49545;BME280;74870;42.636;23.302;2024-01-07T09:45:24;91311.44;;;10.65;69.19
49545;BME280;74870;42.636;23.302;2024-01-07T09:47:50;91310.75;;;10.80;68.78
49545;BME280;74870;42.636;23.302;2024-01-07T09:50:16;91319.91;;;10.86;69.19
49545;BME280;74870;42.636;23.302;2024-01-07T09:52:43;91319.09;;;10.97;67.46
49545;BME280;74870;42.636;23.302;2024-01-07T09:55:12;91318.66;;;10.95;67.73
49545;BME280;74870;42.636;23.302;2024-01-07T09:57:44;91311.78;;;10.91;67.65
49545;BME280;74870;42.636;23.302;2024-01-07T10:00:11;91302.53;;;10.54;68.90
49545;BME280;74870;42.636;23.302;2024-01-07T10:02:37;91299.81;;;10.50;69.34
49545;BME280;74870;42.636;23.302;2024-01-07T10:05:02;91297.34;;;10.42;69.06
49545;BME280;74870;42.636;23.302;2024-01-07T10:07:28;91299.47;;;10.52;68.83
49545;BME280;74870;42.636;23.302;2024-01-07T10:09:53;91290.16;;;10.66;69.17
49545;BME280;74870;42.636;23.302;2024-01-07T10:12:24;91293.91;;;10.53;68.16
49545;BME280;74870;42.636;23.302;2024-01-07T10:14:50;91296.28;;;10.19;68.91
49545;BME280;74870;42.636;23.302;2024-01-07T10:17:16;91279.69;;;10.02;70.17
49545;BME280;74870;42.636;23.302;2024-01-07T10:19:44;91286.09;;;10.29;70.08
49545;BME280;74870;42.636;23.302;2024-01-07T10:22:12;91287.22;;;10.56;69.34
49545;BME280;74870;42.636;23.302;2024-01-07T10:24:41;91278.47;;;10.12;70.42
49545;BME280;74870;42.636;23.302;2024-01-07T10:27:08;91248.81;;;9.72;72.03
49545;BME280;74870;42.636;23.302;2024-01-07T10:29:34;91294.22;;;9.88;72.38
49545;BME280;74870;42.636;23.302;2024-01-07T10:32:00;91271.84;;;9.78;72.79
49545;BME280;74870;42.636;23.302;2024-01-07T10:34:35;91264.63;;;9.99;70.84
49545;BME280;74870;42.636;23.302;2024-01-07T10:37:02;91266.94;;;10.41;70.85
49545;BME280;74870;42.636;23.302;2024-01-07T10:39:28;91270.16;;;10.34;69.20
49545;BME280;74870;42.636;23.302;2024-01-07T10:41:55;91271.44;;;10.28;69.32
49545;BME280;74870;42.636;23.302;2024-01-07T10:44:32;91257.31;;;10.45;69.22
49545;BME280;74870;42.636;23.302;2024-01-07T10:46:59;91262.13;;;10.70;67.30
49545;BME280;74870;42.636;23.302;2024-01-07T10:49:26;91271.66;;;10.35;69.20
49545;BME280;74870;42.636;23.302;2024-01-07T10:52:11;91260.31;;;9.67;71.53
49545;BME280;74870;42.636;23.302;2024-01-07T10:54:39;91270.97;;;9.86;71.66
49545;BME280;74870;42.636;23.302;2024-01-07T10:59:47;91248.00;;;10.20;69.93
49545;BME280;74870;42.636;23.302;2024-01-07T11:02:15;91257.94;;;10.02;69.17
49545;BME280;74870;42.636;23.302;2024-01-07T11:04:48;91258.31;;;9.88;69.02
49545;BME280;74870;42.636;23.302;2024-01-07T11:07:29;91260.69;;;10.05;69.39
49545;BME280;74870;42.636;23.302;2024-01-07T11:12:25;91258.19;;;10.37;67.97
49545;BME280;74870;42.636;23.302;2024-01-07T11:14:50;91269.00;;;10.47;67.52
49545;BME280;74870;42.636;23.302;2024-01-07T11:19:59;91253.19;;;10.59;65.67
49545;BME280;74870;42.636;23.302;2024-01-07T11:22:26;91269.06;;;10.23;66.92
49545;BME280;74870;42.636;23.302;2024-01-07T11:25:00;91269.38;;;10.34;67.50
49545;BME280;74870;42.636;23.302;2024-01-07T11:27:29;91268.44;;;9.90;68.44
49545;BME280;74870;42.636;23.302;2024-01-07T11:29:57;91263.41;;;10.09;68.18
49545;BME280;74870;42.636;23.302;2024-01-07T11:32:24;91263.84;;;10.11;67.69
49545;BME280;74870;42.636;23.302;2024-01-07T11:34:50;91263.50;;;10.25;67.32
49545;BME280;74870;42.636;23.302;2024-01-07T11:37:19;91263.41;;;10.09;67.76
49545;BME280;74870;42.636;23.302;2024-01-07T11:39:45;91263.84;;;10.11;68.14
49545;BME280;74870;42.636;23.302;2024-01-07T11:42:11;91255.69;;;10.40;67.23
49545;BME280;74870;42.636;23.302;2024-01-07T11:44:37;91264.81;;;10.19;67.85
49545;BME280;74870;42.636;23.302;2024-01-07T11:47:04;91273.00;;;10.29;67.65
49545;BME280;74870;42.636;23.302;2024-01-07T11:49:31;91273.16;;;10.48;67.18
49545;BME280;74870;42.636;23.302;2024-01-07T11:51:57;91274.81;;;10.68;66.26
49545;BME280;74870;42.636;23.302;2024-01-07T11:54:22;91208.28;;;9.93;67.40
49545;BME280;74870;42.636;23.302;2024-01-07T11:56:47;91263.06;;;10.23;68.14
49545;BME280;74870;42.636;23.302;2024-01-07T11:59:13;91265.94;;;10.05;68.89
49545;BME280;74870;42.636;23.302;2024-01-07T12:01:38;91266.03;;;9.97;68.35
49545;BME280;74870;42.636;23.302;2024-01-07T12:04:04;91258.06;;;10.18;68.66
49545;BME280;74870;42.636;23.302;2024-01-07T12:06:29;91246.59;;;9.98;68.40
49545;BME280;74870;42.636;23.302;2024-01-07T12:08:55;91251.94;;;10.01;69.36
49545;BME280;74870;42.636;23.302;2024-01-07T12:11:20;91252.25;;;10.12;69.00
49545;BME280;74870;42.636;23.302;2024-01-07T12:13:46;91261.84;;;10.20;69.30
49545;BME280;74870;42.636;23.302;2024-01-07T12:16:12;91254.22;;;10.03;69.20
49545;BME280;74870;42.636;23.302;2024-01-07T12:18:38;91270.19;;;9.98;68.92
49545;BME280;74870;42.636;23.302;2024-01-07T12:21:04;91257.09;;;9.86;69.21
49545;BME280;74870;42.636;23.302;2024-01-07T12:23:34;91259.50;;;9.91;68.78
49545;BME280;74870;42.636;23.302;2024-01-07T12:26:07;91268.44;;;9.90;69.48
49545;BME280;74870;42.636;23.302;2024-01-07T12:28:33;91245.97;;;9.77;68.00
49545;BME280;74870;42.636;23.302;2024-01-07T12:30:59;91250.31;;;9.97;62.03
49545;BME280;74870;42.636;23.302;2024-01-07T12:33:27;91242.75;;;10.07;62.48
49545;BME280;74870;42.636;23.302;2024-01-07T12:35:54;91257.25;;;10.29;59.88
49545;BME280;74870;42.636;23.302;2024-01-07T12:38:26;91244.78;;;10.38;62.98
49545;BME280;74870;42.636;23.302;2024-01-07T12:40:52;91246.75;;;10.29;65.25
49545;BME280;74870;42.636;23.302;2024-01-07T12:43:18;91258.53;;;10.63;65.42
49545;BME280;74870;42.636;23.302;2024-01-07T12:45:44;91260.97;;;10.83;65.80
49545;BME280;74870;42.636;23.302;2024-01-07T12:48:09;91258.47;;;11.03;65.49
49545;BME280;74870;42.636;23.302;2024-01-07T12:50:35;91255.16;;;11.21;65.90
49545;BME280;74870;42.636;23.302;2024-01-07T12:53:01;91265.50;;;11.14;65.37
49545;BME280;74870;42.636;23.302;2024-01-07T12:55:26;91260.09;;;11.23;65.61
49545;BME280;74870;42.636;23.302;2024-01-07T12:57:52;91265.50;;;11.45;64.73
49545;BME280;74870;42.636;23.302;2024-01-07T13:00:17;91278.00;;;10.89;66.10